Anna Desgagnes — VCWS — position and weather

sailwx.info

Track history (hours):
 
Tides and Currents Weather Stations Pressure Air Temp Water Temp Dewpoint Dewpoint Depression Visibility Wind Speed Wind Dir Waves Ship Positions

Anna Desgagnes

Last reported at 2017-Feb-23 15:00 UTC. Time now 2017-Feb-23 16:07 UTC.
Position N 45°30' W 073°30'.

Length 173 m; draft 7 m.

Type: Ship. MMSI: 316297000.

Wind from 140 at 3 knots

Air temperature 7.8 ° C
Dewpoint 4.6 ° C

Date/timePositionNaut miles runAvg speedWind from/ knotsBaromVisibWave heightAir tempDewpointWater temp
2017-Feb-23 15:00N 45°30' W 073°30'0 0.0 140 / 3 7.8 4.6
2017-Feb-23 14:00N 45°30' W 073°30'0 0.0 180 / 3 6.5 3.9
2017-Feb-23 13:00N 45°30' W 073°30'0 0.0 160 / 3 6.7 3.6
2017-Feb-23 12:00N 45°30' W 073°30'0 0.0 190 / 3 5.5 2.6
2017-Feb-23 11:00N 45°30' W 073°30'0 0.0 190 / 2 5.5 2.5
2017-Feb-23 10:00N 45°30' W 073°30'0 0.0 210 / 2 3.2 1.4
2017-Feb-23 09:00N 45°30' W 073°30'0 0.0 2.3 1.5
2017-Feb-23 08:00N 45°30' W 073°30'0 0.0 360 / 3 1.9 1.0
2017-Feb-23 07:00N 45°30' W 073°30'0 0.0 350 / 5 1.6 0.8
2017-Feb-23 06:00N 45°30' W 073°30'0 0.0 360 / 5 2.1 1.3
2017-Feb-23 05:00N 45°30' W 073°30'0 0.0 360 / 3 2.9 1.8
2017-Feb-23 04:00N 45°30' W 073°30'0 0.0 010 / 3 3.0 1.8
2017-Feb-23 03:00N 45°30' W 073°30'0 0.0 360 / 6 3.5 2.1
2017-Feb-23 02:00N 45°30' W 073°30'0 0.0 360 / 1 4.1 2.2
2017-Feb-23 01:00N 45°30' W 073°30'0 0.0 010 / 3 4.1 2.2
2017-Feb-23 00:00N 45°30' W 073°30'0 0.0 4.8 2.3
2017-Feb-22 23:00N 45°30' W 073°30'0 0.0 140 / 2 6.1 2.6
2017-Feb-22 22:00N 45°30' W 073°30'0 0.0 120 / 1 7.5 3.0
2017-Feb-22 21:00N 45°30' W 073°30'0 0.0 060 / 1 7.3 2.9
2017-Feb-22 20:00N 45°30' W 073°30'0 0.0 120 / 1 7.6 3.2
2017-Feb-22 19:00N 45°30' W 073°30'0 0.0 100 / 1 6.7 2.9
2017-Feb-22 18:00N 45°30' W 073°30'0 0.0 180 / 2 6.8 2.9
2017-Feb-22 17:00N 45°30' W 073°30'0 0.0 120 / 2 5.9 2.7
2017-Feb-22 16:00N 45°30' W 073°30'0 0.0 110 / 1 4.8 2.5
2017-Feb-22 15:00N 45°30' W 073°30'0 0.0 170 / 2 3.8 2.3
2017-Feb-22 14:00N 45°30' W 073°30'0 0.0 180 / 3 2.8 1.7
2017-Feb-22 13:00N 45°30' W 073°30'0 0.0 130 / 1 3.2 1.7
2017-Feb-22 12:00N 45°30' W 073°30'0 0.0 160 / 1 3.5 1.3
2017-Feb-22 11:00N 45°30' W 073°30'0 0.0 220 / 5 3.5-0.1
2017-Feb-22 10:00N 45°30' W 073°30'0 0.0 210 / 6 3.2-0.7
2017-Feb-22 09:00N 45°30' W 073°30'0 0.0 180 / 3 3.3-1.5
2017-Feb-22 08:00N 45°30' W 073°30'0 0.0 180 / 5 3.4-2.1
2017-Feb-22 07:00N 45°30' W 073°30'0 0.0 200 / 3 2.8-2.3
2017-Feb-22 06:00N 45°30' W 073°30'0 0.0 180 / 3 3.0-2.1
2017-Feb-22 05:00N 45°30' W 073°30'0 0.0 210 / 2 2.6-3.4
2017-Feb-22 04:00N 45°30' W 073°30'0 0.0 020 / 1 3.5-3.3
2017-Feb-22 03:00N 45°30' W 073°30'0 0.0 200 / 3 3.6-5.2
2017-Feb-22 02:00N 45°30' W 073°30'0 0.0 180 / 6 3.7-5.2
2017-Feb-22 01:00N 45°30' W 073°30'0 0.0 140 / 4 4.2-5.6
2017-Feb-22 00:00N 45°30' W 073°30'0 0.0 180 / 3 3.9-5.9
2017-Feb-21 23:00N 45°30' W 073°30'0 0.0 170 / 1 3.6-5.6
2017-Feb-21 22:00N 45°30' W 073°30'0 0.0 130 / 3 4.0-5.8
2017-Feb-21 21:00N 45°30' W 073°30'0 0.0 120 / 3 4.0-6.6
2017-Feb-21 20:00N 45°30' W 073°30'0 0.0 130 / 3 4.0-7.0
2017-Feb-21 19:00N 45°30' W 073°30'0 0.0 110 / 3 3.2-6.9
2017-Feb-21 18:00N 45°30' W 073°30'0 0.0 120 / 4 1.7-7.9
2017-Feb-21 17:00N 45°30' W 073°30'0 0.0 130 / 3 0.8-8.3
2017-Feb-21 16:00N 45°30' W 073°30'0 0.0 030 / 4 -0.7-8.5
2017-Feb-21 15:00N 45°30' W 073°30'0 0.0 110 / 2 -2.0-8.6
2017-Feb-21 14:00N 45°30' W 073°30'0 0.0 100 / 1 -3.0-7.7
2017-Feb-21 13:00N 45°30' W 073°30'0 0.0 100 / 1 -4.6-7.8
2017-Feb-21 12:00N 45°30' W 073°30'0 0.0 090 / 2 -6.0-8.0
2017-Feb-21 11:00N 45°30' W 073°30'0 0.0 090 / 2 -5.7-8.0
2017-Feb-21 10:00N 45°30' W 073°30'0 0.0 100 / 1 -4.7-6.9
2017-Feb-21 09:00N 45°30' W 073°30'0 0.0 150 / 2 -4.2-7.6
2017-Feb-21 08:00N 45°30' W 073°30'0 0.0 150 / 2 -3.8-7.9
2017-Feb-21 07:00N 45°30' W 073°30'0 0.0 170 / 3 -3.6-7.5
2017-Feb-21 06:00N 45°30' W 073°30'0 0.0 140 / 4 -2.9-6.7
2017-Feb-21 05:00N 45°30' W 073°30'0 0.0 130 / 1 -2.0-6.2
2017-Feb-21 04:00N 45°30' W 073°30'0 0.0 180 / 3 -1.6-9.5
2017-Feb-21 03:00N 45°30' W 073°30'0 0.0 210 / 4 -1.1-11.0
2017-Feb-21 02:00N 45°30' W 073°30'0 0.0 210 / 5 -0.9-10.7
2017-Feb-21 01:00N 45°30' W 073°30'0 0.0 200 / 5 -0.8-10.2
2017-Feb-21 00:00N 45°30' W 073°30'0 0.0 210 / 5 -0.6-9.5
2017-Feb-20 23:00N 45°30' W 073°30'0 0.0 210 / 8 -0.3-9.3
2017-Feb-20 22:00N 45°30' W 073°30'0 0.0 190 / 5 1.5-8.4
2017-Feb-20 21:00N 45°30' W 073°30'0 0.0 120 / 1 3.5-9.6
2017-Feb-20 20:00N 45°30' W 073°30'0 0.0 310 / 2 1.9-11.4
2017-Feb-20 19:00N 45°30' W 073°30'0 0.0 210 / 7 0.5-10.4
2017-Feb-20 18:00N 45°30' W 073°30'0 0.0 010 / 3 0.1-11.1
2017-Feb-20 17:00N 45°30' W 073°30'0 0.0 350 / 7 -1.1-11.8
2017-Feb-20 16:00N 45°30' W 073°30'0 0.0 350 / 5 -1.7-9.9
2017-Feb-20 15:00N 45°30' W 073°30'0 0.0 350 / 8 -2.5-9.7
2017-Feb-20 14:00N 45°30' W 073°30'0 0.0 340 / 9 -3.1-9.6
2017-Feb-20 13:00N 45°30' W 073°30'0 0.0 320 / 11 -3.2-9.8
2017-Feb-20 12:00N 45°30' W 073°30'0 0.0 310 / 10 -3.1-9.6
2017-Feb-20 11:00N 45°30' W 073°30'0 0.0 320 / 9 -2.1-9.2
2017-Feb-20 10:00N 45°30' W 073°30'0 0.0 320 / 10 -1.4-8.8
2017-Feb-20 09:00N 45°30' W 073°30'0 0.0 300 / 5 -0.5-7.3
2017-Feb-20 08:00N 45°30' W 073°30'0 0.0 310 / 10 -0.0-7.7
2017-Feb-20 07:00N 45°30' W 073°30'0 0.0 320 / 8 0.8-7.2
2017-Feb-20 06:00N 45°30' W 073°30'0 0.0 320 / 9 1.2-6.5
2017-Feb-20 05:00N 45°30' W 073°30'0 0.0 340 / 9 1.4-5.9
2017-Feb-20 04:00N 45°30' W 073°30'0 0.0 350 / 6 2.0-4.4
2017-Feb-20 03:00N 45°30' W 073°30'0 0.0 350 / 12 3.0-3.6
2017-Feb-20 02:00N 45°30' W 073°30'0 0.0 320 / 8 3.8-2.9
2017-Feb-20 01:00N 45°30' W 073°30'0 0.0 340 / 10 4.7-1.8
2017-Feb-20 00:00N 45°30' W 073°30'0 0.0 320 / 10 5.1-1.7
2017-Feb-19 23:00N 45°30' W 073°30'0 0.0 290 / 10 5.9-0.4
2017-Feb-19 22:00N 45°30' W 073°30'0 0.0 320 / 14 7.3 0.7
2017-Feb-19 21:00N 45°30' W 073°30'0 0.0 230 / 5 7.7 0.4
2017-Feb-19 20:00N 45°30' W 073°30'0 0.0 250 / 6 8.7-0.0
2017-Feb-19 19:00N 45°30' W 073°30'0 0.0 300 / 10 8.9 0.3
2017-Feb-19 18:00N 45°30' W 073°30'0 0.0 270 / 5 8.0 1.5
2017-Feb-19 17:00N 45°30' W 073°30'0 0.0 240 / 5 7.5 2.0
2017-Feb-19 16:00N 45°30' W 073°30'0 0.0 240 / 10 6.5 2.1
2017-Feb-19 15:00N 45°30' W 073°30'0 0.0 240 / 9 4.9 1.9
2017-Feb-19 14:00N 45°30' W 073°30'0 0.0 220 / 9 4.0 1.8
2017-Feb-19 13:00N 45°30' W 073°30'0 0.0 210 / 9 3.4 1.8
2017-Feb-19 12:00N 45°30' W 073°30'0 0.0 210 / 8 3.5 1.8
2017-Feb-19 11:00N 45°30' W 073°30'0 0.0 190 / 8 3.4 1.7
2017-Feb-19 10:00N 45°30' W 073°30'0 0.0 200 / 8 4.4 1.8
2017-Feb-19 09:00N 45°30' W 073°30'0 0.0 230 / 10 5.3 1.9
2017-Feb-19 08:00N 45°30' W 073°30'0 0.0 240 / 12 5.7 1.9
2017-Feb-19 07:00N 45°30' W 073°30'0 0.0 230 / 10 5.6 1.9
2017-Feb-19 06:00N 45°30' W 073°30'0 0.0 220 / 10 5.7 2.0
2017-Feb-19 05:00N 45°30' W 073°30'0 0.0 220 / 10 6.1 2.1
2017-Feb-19 04:00N 45°30' W 073°30'0 0.0 230 / 10 6.8 2.1
2017-Feb-19 03:00N 45°30' W 073°30'0 0.0 230 / 9 7.6 2.2
2017-Feb-19 02:00N 45°30' W 073°30'0 0.0 230 / 16 7.9 2.1
2017-Feb-19 01:00N 45°30' W 073°30'0 0.0 230 / 13 8.1 2.1
2017-Feb-19 00:00N 45°30' W 073°30'0 0.0 220 / 12 8.1 1.9
2017-Feb-18 23:00N 45°30' W 073°30'0 0.0 210 / 8 6.2-0.9
2017-Feb-18 22:00N 45°30' W 073°30'0 0.0 170 / 6 5.6-2.3
2017-Feb-18 21:00N 45°30' W 073°30'0 0.0 170 / 7 5.7-2.9
2017-Feb-18 20:00N 45°30' W 073°30'0 0.0 160 / 3 5.5-2.9
2017-Feb-18 19:00N 45°30' W 073°30'0 0.0 150 / 5 4.3-3.1
2017-Feb-18 18:00N 45°30' W 073°30'0 0.0 140 / 4 3.6-3.8
2017-Feb-18 17:00N 45°30' W 073°30'0 0.0 150 / 5 2.4-4.7
2017-Feb-18 16:00N 45°30' W 073°30'0 0.0 140 / 5 0.7-5.1
2017-Feb-18 15:00N 45°30' W 073°30'0 0.0 120 / 2 0.2-6.2
2017-Feb-18 14:00N 45°30' W 073°30'0 0.0 170 / 5 -1.4-6.6
2017-Feb-18 13:00N 45°30' W 073°30'0 0.0 160 / 5 -2.6-6.0
2017-Feb-18 12:00N 45°30' W 073°30'0 0.0 150 / 4 -3.8-6.4
2017-Feb-18 11:00N 45°30' W 073°30'0 0.0 120 / 3 -3.9-7.9
2017-Feb-18 10:00N 45°30' W 073°30'0 0.0 160 / 2 -4.1-8.0
2017-Feb-18 09:00N 45°30' W 073°30'0 0.0 150 / 5 -3.7-7.2
2017-Feb-18 08:00N 45°30' W 073°30'0 0.0 180 / 4 -3.5-8.0
2017-Feb-18 07:00N 45°30' W 073°30'0 0.0 180 / 4 -3.4-8.3
2017-Feb-18 06:00N 45°30' W 073°30'0 0.0 210 / 8 -3.8-8.8
2017-Feb-18 05:00N 45°30' W 073°30'0 0.0 200 / 9 -4.0-8.8
2017-Feb-18 04:00N 45°30' W 073°30'0 0.0 210 / 9 -3.8-9.2
2017-Feb-18 03:00N 45°30' W 073°30'0 0.0 210 / 9 -4.0-9.5
2017-Feb-18 02:00N 45°30' W 073°30'0 0.0 220 / 8 -3.7-9.5
2017-Feb-18 01:00N 45°30' W 073°30'0 0.0 230 / 9 -3.6-9.5
2017-Feb-18 00:00N 45°30' W 073°30'0 0.0 220 / 9 -3.6-9.5
2017-Feb-17 23:00N 45°30' W 073°30'0 0.0 230 / 11 -3.2-9.7
2017-Feb-17 22:00N 45°30' W 073°30'0 0.0 220 / 10 -3.0-9.4
2017-Feb-17 21:00N 45°30' W 073°30'0 0.0 230 / 11 -3.2-9.8
2017-Feb-17 20:00N 45°30' W 073°30'0 0.0 210 / 10 -3.6-9.8
2017-Feb-17 19:00N 45°30' W 073°30'0 0.0 210 / 12 -3.6-9.9
2017-Feb-17 18:00N 45°30' W 073°30'0 0.0 220 / 11 -4.1-11.0
2017-Feb-17 17:00N 45°30' W 073°30'0 0.0 240 / 13 -4.4-11.2
2017-Feb-17 16:00N 45°30' W 073°30'0 0.0 230 / 8 -5.2-10.8
2017-Feb-17 15:00N 45°30' W 073°30'0 0.0 240 / 11 -6.2-11.3
2017-Feb-17 14:00N 45°30' W 073°30'0 0.0 230 / 9 -6.4-11.5
2017-Feb-17 13:00N 45°30' W 073°30'0 0.0 230 / 6 -6.7-11.6
2017-Feb-17 12:00N 45°30' W 073°30'0 0.0 240 / 5 -6.9-11.9
2017-Feb-17 11:00N 45°30' W 073°30'0 0.0 240 / 6 -6.5-11.7
2017-Feb-17 10:00N 45°30' W 073°30'0 0.0 230 / 6 -5.8-11.0
2017-Feb-17 09:00N 45°30' W 073°30'0 0.0 270 / 3 -5.3-10.7
2017-Feb-17 08:00N 45°30' W 073°30'0 0.0 260 / 7 -5.0-10.3
2017-Feb-17 07:00N 45°30' W 073°30'0 0.0 260 / 5 -4.7-10.0
2017-Feb-17 06:00N 45°30' W 073°30'0 0.0 260 / 6 -4.3-9.5
2017-Feb-17 05:00N 45°30' W 073°30'0 0.0 260 / 5 -3.8-8.1
2017-Feb-17 04:00N 45°30' W 073°30'0 0.0 290 / 9 -3.3-8.9
2017-Feb-17 03:00N 45°30' W 073°30'0 0.0 290 / 3 -3.4-7.4
2017-Feb-17 02:00N 45°30' W 073°30'0 0.0 260 / 5 -3.0-8.1
2017-Feb-17 01:00N 45°30' W 073°30'0 0.0 300 / 10 -2.5-8.1
2017-Feb-17 00:00N 45°30' W 073°30'0 0.0 290 / 13 -2.2-7.6
2017-Feb-16 23:00N 45°30' W 073°30'0 0.0 280 / 5 -1.7-7.3
2017-Feb-16 22:00N 45°30' W 073°30'0 0.0 300 / 9 -1.4-7.3
2017-Feb-16 21:00N 45°30' W 073°30'0 0.0 230 / 7 -2.2-6.9
2017-Feb-16 20:00N 45°30' W 073°30'0 0.0 230 / 5 -2.3-6.7
2017-Feb-16 19:00N 45°30' W 073°30'0 0.0 240 / 5 -2.0-6.4
2017-Feb-16 17:00N 45°30' W 073°30'0 0.0 290 / 8 -2.9-6.6
2017-Feb-16 16:00N 45°30' W 073°30'0 0.0 320 / 7 -3.0-5.6
2017-Feb-16 15:00N 45°30' W 073°30'0 0.0 310 / 8 -3.6-5.3
2017-Feb-16 14:00N 45°30' W 073°30'0 0.0 340 / 8 -4.4-4.8
2017-Feb-16 13:00N 45°30' W 073°30'0 0.0 340 / 10 -4.7-4.9
2017-Feb-16 12:00N 45°30' W 073°30'0 0.0 350 / 11 -4.6-4.8
2017-Feb-16 11:00N 45°30' W 073°30'0 0.0 340 / 11 -4.5-4.9
2017-Feb-16 10:00N 45°30' W 073°30'0 0.0 340 / 11 -4.3-4.7
2017-Feb-16 09:00N 45°30' W 073°30'0 0.0 340 / 11 -4.4-4.5
2017-Feb-16 08:00N 45°30' W 073°30'0 0.0 330 / 10 -4.0-4.9
2017-Feb-16 07:00N 45°30' W 073°30'0 0.0 340 / 11 -4.1-4.5
2017-Feb-16 06:00N 45°30' W 073°30'0 0.0 320 / 9 -3.9-4.2
2017-Feb-16 05:00N 45°30' W 073°30'0 0.0 310 / 9 -3.8-4.2
2017-Feb-16 04:00N 45°30' W 073°30'0 0.0 310 / 10 -4.0-4.1
2017-Feb-16 03:00N 45°30' W 073°30'0 0.0 330 / 9 -4.2-4.4
2017-Feb-16 02:00N 45°30' W 073°30'0 0.0 340 / 8 -4.3-4.6
2017-Feb-16 01:00N 45°30' W 073°30'0 0.0 340 / 10 -4.5-5.1
2017-Feb-16 00:00N 45°30' W 073°30'0 0.0 340 / 11 -4.6-5.0
2017-Feb-15 23:00N 45°30' W 073°30'0 0.0 340 / 12 -4.5-4.8
2017-Feb-15 22:00N 45°30' W 073°30'0 0.0 350 / 12 -4.5-4.6
2017-Feb-15 21:00N 45°30' W 073°30'0 0.0 350 / 14 -4.5-4.6
2017-Feb-15 20:00N 45°30' W 073°30'0 0.0 360 / 9 -4.5-4.6
2017-Feb-15 19:00N 45°30' W 073°30'0 0.0 360 / 12 -4.9-5.0
2017-Feb-15 18:00N 45°30' W 073°30'0 0.0 360 / 10 -5.3-5.4
2017-Feb-15 17:00N 45°30' W 073°30'0 0.0 360 / 11 -5.5-5.6
2017-Feb-15 16:00N 45°30' W 073°30'0 0.0 350 / 10 -5.8-5.9
2017-Feb-15 15:00N 45°30' W 073°30'0 0.0 350 / 12 -6.0-6.1
2017-Feb-15 14:00N 45°30' W 073°30'0 0.0 350 / 12 -6.0-6.1
2017-Feb-15 13:00N 45°30' W 073°30'0 0.0 350 / 11 -5.4-5.5
2017-Feb-15 12:00N 45°30' W 073°30'0 0.0 350 / 9 -5.0-5.1
2017-Feb-15 11:00N 45°30' W 073°30'0 0.0 350 / 9 -4.6-4.6
2017-Feb-15 10:00N 45°30' W 073°30'0 0.0 360 / 8 -4.3-4.3
2017-Feb-15 09:00N 45°30' W 073°30'0 0.0 350 / 9 -3.9-4.0
2017-Feb-15 08:00N 45°30' W 073°30'0 0.0 010 / 2 -2.8-2.8
2017-Feb-15 07:00N 45°30' W 073°30'0 0.0 020 / 3 -3.5-3.5
2017-Feb-15 06:00N 45°30' W 073°30'0 0.0 030 / 2 -4.3-4.3
2017-Feb-15 05:00N 45°30' W 073°30'0 0.0 020 / 4 -5.0-5.2
2017-Feb-15 04:00N 45°30' W 073°30'0 0.0 360 / 5 -4.5-7.6
2017-Feb-15 03:00N 45°30' W 073°30'0 0.0 020 / 4 -4.5-8.0
2017-Feb-15 02:00N 45°30' W 073°30'0 0.0 010 / 4 -4.7-8.5
2017-Feb-15 01:00N 45°30' W 073°30'0 0.0 030 / 3 -4.2-8.4
2017-Feb-15 00:00N 45°30' W 073°30'0 0.0 020 / 4 -4.1-8.7
2017-Feb-14 23:00N 45°30' W 073°30'0 0.0 030 / 2 -4.0-8.5
2017-Feb-14 22:00N 45°30' W 073°30'0 0.0 100 / 3 -3.2-8.5
2017-Feb-14 21:00N 45°30' W 073°30'0 0.0 110 / 2 -2.7-8.0
2017-Feb-14 20:00N 45°30' W 073°30'0 0.0 120 / 3 -2.2-8.2
2017-Feb-14 19:00N 45°30' W 073°30'0 0.0 140 / 4 -4.0-9.2
2017-Feb-14 18:00N 45°30' W 073°30'0 0.0 130 / 3 -4.3-8.5
2017-Feb-14 17:00N 45°30' W 073°30'0 0.0 140 / 4 -4.7-7.8
2017-Feb-14 16:00N 45°30' W 073°30'0 0.0 120 / 2 -5.3-7.9
2017-Feb-14 15:00N 45°30' W 073°30'0 0.0 170 / 5 -6.1-8.6
2017-Feb-14 14:00N 45°30' W 073°30'0 0.0 210 / 6 -7.3-9.7
2017-Feb-14 13:00N 45°30' W 073°30'0 0.0 210 / 6 -8.7-9.9
2017-Feb-14 12:00N 45°30' W 073°30'0 0.0 210 / 8 -8.0-9.4
2017-Feb-14 11:00N 45°30' W 073°30'0 0.0 210 / 7 -7.3-9.0
2017-Feb-14 10:00N 45°30' W 073°30'0 0.0 210 / 7 -6.3-9.5
2017-Feb-14 09:00N 45°30' W 073°30'0 0.0 210 / 5 -5.9-9.3
2017-Feb-14 08:00N 45°30' W 073°30'0 0.0 220 / 4 -5.1-9.2
2017-Feb-14 07:00N 45°30' W 073°30'0 0.0 230 / 5 -5.2-8.9
2017-Feb-14 06:00N 45°30' W 073°30'0 0.0 250 / 3 -4.6-8.7
2017-Feb-14 05:00N 45°30' W 073°30'0 0.0 240 / 5 -4.3-8.6
2017-Feb-14 04:00N 45°30' W 073°30'0 0.0 300 / 4 -3.7-8.1
2017-Feb-14 03:00N 45°30' W 073°30'0 0.0 240 / 4 -3.6-7.9
2017-Feb-14 02:00N 45°30' W 073°30'0 0.0 300 / 8 -3.0-7.7
2017-Feb-14 01:00N 45°30' W 073°30'0 0.0 300 / 7 -2.7-7.8
2017-Feb-14 00:00N 45°30' W 073°30'0 0.0 280 / 5 -2.5-7.4
2017-Feb-13 23:00N 45°30' W 073°30'0 0.0 230 / 6 -3.0-7.2
2017-Feb-13 22:00N 45°30' W 073°30'0 0.0 230 / 7 -3.1-8.0
2017-Feb-13 21:00N 45°30' W 073°30'0 0.0 230 / 6 -3.4-8.6
2017-Feb-13 20:00N 45°30' W 073°30'0 0.0 230 / 6 -3.6-9.1
2017-Feb-13 19:00N 45°30' W 073°30'0 0.0 300 / 6 -3.7-8.9
2017-Feb-13 18:00N 45°30' W 073°30'0 0.0 350 / 6 -4.4-8.9
2017-Feb-13 17:00N 45°30' W 073°30'0 0.0 350 / 9 -5.2-9.0
2017-Feb-13 16:00N 45°30' W 073°30'0 0.0 350 / 9 -5.9-9.0
2017-Feb-13 15:00N 45°30' W 073°30'   350 / 12 -6.5-8.9
Track history (hours):
 
Tides and Currents Weather Stations Pressure Air Temp Water Temp Dewpoint Dewpoint Depression Visibility Wind Speed Wind Dir Waves Ship Positions

Anna Desgagnes

Last reported at 2017-Feb-23 15:00 UTC. Time now 2017-Feb-23 16:07 UTC.
Position N 45°30' W 073°30'.

Length 173 m; draft 7 m.

Type: Ship. MMSI: 316297000.

Wind from 140 at 3 knots

Air temperature 7.8 ° C
Dewpoint 4.6 ° C

Date/timePositionNaut miles runAvg speedWind from/ knotsBaromVisibWave heightAir tempDewpointWater temp
2017-Feb-23 15:00N 45°30' W 073°30'0 0.0 140 / 3 7.8 4.6
2017-Feb-23 14:00N 45°30' W 073°30'0 0.0 180 / 3 6.5 3.9
2017-Feb-23 13:00N 45°30' W 073°30'0 0.0 160 / 3 6.7 3.6
2017-Feb-23 12:00N 45°30' W 073°30'0 0.0 190 / 3 5.5 2.6
2017-Feb-23 11:00N 45°30' W 073°30'0 0.0 190 / 2 5.5 2.5
2017-Feb-23 10:00N 45°30' W 073°30'0 0.0 210 / 2 3.2 1.4
2017-Feb-23 09:00N 45°30' W 073°30'0 0.0 2.3 1.5
2017-Feb-23 08:00N 45°30' W 073°30'0 0.0 360 / 3 1.9 1.0
2017-Feb-23 07:00N 45°30' W 073°30'0 0.0 350 / 5 1.6 0.8
2017-Feb-23 06:00N 45°30' W 073°30'0 0.0 360 / 5 2.1 1.3
2017-Feb-23 05:00N 45°30' W 073°30'0 0.0 360 / 3 2.9 1.8
2017-Feb-23 04:00N 45°30' W 073°30'0 0.0 010 / 3 3.0 1.8
2017-Feb-23 03:00N 45°30' W 073°30'0 0.0 360 / 6 3.5 2.1
2017-Feb-23 02:00N 45°30' W 073°30'0 0.0 360 / 1 4.1 2.2
2017-Feb-23 01:00N 45°30' W 073°30'0 0.0 010 / 3 4.1 2.2
2017-Feb-23 00:00N 45°30' W 073°30'0 0.0 4.8 2.3
2017-Feb-22 23:00N 45°30' W 073°30'0 0.0 140 / 2 6.1 2.6
2017-Feb-22 22:00N 45°30' W 073°30'0 0.0 120 / 1 7.5 3.0
2017-Feb-22 21:00N 45°30' W 073°30'0 0.0 060 / 1 7.3 2.9
2017-Feb-22 20:00N 45°30' W 073°30'0 0.0 120 / 1 7.6 3.2
2017-Feb-22 19:00N 45°30' W 073°30'0 0.0 100 / 1 6.7 2.9
2017-Feb-22 18:00N 45°30' W 073°30'0 0.0 180 / 2 6.8 2.9
2017-Feb-22 17:00N 45°30' W 073°30'0 0.0 120 / 2 5.9 2.7
2017-Feb-22 16:00N 45°30' W 073°30'0 0.0 110 / 1 4.8 2.5
2017-Feb-22 15:00N 45°30' W 073°30'0 0.0 170 / 2 3.8 2.3
2017-Feb-22 14:00N 45°30' W 073°30'0 0.0 180 / 3 2.8 1.7
2017-Feb-22 13:00N 45°30' W 073°30'0 0.0 130 / 1 3.2 1.7
2017-Feb-22 12:00N 45°30' W 073°30'0 0.0 160 / 1 3.5 1.3
2017-Feb-22 11:00N 45°30' W 073°30'0 0.0 220 / 5 3.5-0.1
2017-Feb-22 10:00N 45°30' W 073°30'0 0.0 210 / 6 3.2-0.7
2017-Feb-22 09:00N 45°30' W 073°30'0 0.0 180 / 3 3.3-1.5
2017-Feb-22 08:00N 45°30' W 073°30'0 0.0 180 / 5 3.4-2.1
2017-Feb-22 07:00N 45°30' W 073°30'0 0.0 200 / 3 2.8-2.3
2017-Feb-22 06:00N 45°30' W 073°30'0 0.0 180 / 3 3.0-2.1
2017-Feb-22 05:00N 45°30' W 073°30'0 0.0 210 / 2 2.6-3.4
2017-Feb-22 04:00N 45°30' W 073°30'0 0.0 020 / 1 3.5-3.3
2017-Feb-22 03:00N 45°30' W 073°30'0 0.0 200 / 3 3.6-5.2
2017-Feb-22 02:00N 45°30' W 073°30'0 0.0 180 / 6 3.7-5.2
2017-Feb-22 01:00N 45°30' W 073°30'0 0.0 140 / 4 4.2-5.6
2017-Feb-22 00:00N 45°30' W 073°30'0 0.0 180 / 3 3.9-5.9
2017-Feb-21 23:00N 45°30' W 073°30'0 0.0 170 / 1 3.6-5.6
2017-Feb-21 22:00N 45°30' W 073°30'0 0.0 130 / 3 4.0-5.8
2017-Feb-21 21:00N 45°30' W 073°30'0 0.0 120 / 3 4.0-6.6
2017-Feb-21 20:00N 45°30' W 073°30'0 0.0 130 / 3 4.0-7.0
2017-Feb-21 19:00N 45°30' W 073°30'0 0.0 110 / 3 3.2-6.9
2017-Feb-21 18:00N 45°30' W 073°30'0 0.0 120 / 4 1.7-7.9
2017-Feb-21 17:00N 45°30' W 073°30'0 0.0 130 / 3 0.8-8.3
2017-Feb-21 16:00N 45°30' W 073°30'0 0.0 030 / 4 -0.7-8.5
2017-Feb-21 15:00N 45°30' W 073°30'0 0.0 110 / 2 -2.0-8.6
2017-Feb-21 14:00N 45°30' W 073°30'0 0.0 100 / 1 -3.0-7.7
2017-Feb-21 13:00N 45°30' W 073°30'0 0.0 100 / 1 -4.6-7.8
2017-Feb-21 12:00N 45°30' W 073°30'0 0.0 090 / 2 -6.0-8.0
2017-Feb-21 11:00N 45°30' W 073°30'0 0.0 090 / 2 -5.7-8.0
2017-Feb-21 10:00N 45°30' W 073°30'0 0.0 100 / 1 -4.7-6.9
2017-Feb-21 09:00N 45°30' W 073°30'0 0.0 150 / 2 -4.2-7.6
2017-Feb-21 08:00N 45°30' W 073°30'0 0.0 150 / 2 -3.8-7.9
2017-Feb-21 07:00N 45°30' W 073°30'0 0.0 170 / 3 -3.6-7.5
2017-Feb-21 06:00N 45°30' W 073°30'0 0.0 140 / 4 -2.9-6.7
2017-Feb-21 05:00N 45°30' W 073°30'0 0.0 130 / 1 -2.0-6.2
2017-Feb-21 04:00N 45°30' W 073°30'0 0.0 180 / 3 -1.6-9.5
2017-Feb-21 03:00N 45°30' W 073°30'0 0.0 210 / 4 -1.1-11.0
2017-Feb-21 02:00N 45°30' W 073°30'0 0.0 210 / 5 -0.9-10.7
2017-Feb-21 01:00N 45°30' W 073°30'0 0.0 200 / 5 -0.8-10.2
2017-Feb-21 00:00N 45°30' W 073°30'0 0.0 210 / 5 -0.6-9.5
2017-Feb-20 23:00N 45°30' W 073°30'0 0.0 210 / 8 -0.3-9.3
2017-Feb-20 22:00N 45°30' W 073°30'0 0.0 190 / 5 1.5-8.4
2017-Feb-20 21:00N 45°30' W 073°30'0 0.0 120 / 1 3.5-9.6
2017-Feb-20 20:00N 45°30' W 073°30'0 0.0 310 / 2 1.9-11.4
2017-Feb-20 19:00N 45°30' W 073°30'0 0.0 210 / 7 0.5-10.4
2017-Feb-20 18:00N 45°30' W 073°30'0 0.0 010 / 3 0.1-11.1
2017-Feb-20 17:00N 45°30' W 073°30'0 0.0 350 / 7 -1.1-11.8
2017-Feb-20 16:00N 45°30' W 073°30'0 0.0 350 / 5 -1.7-9.9
2017-Feb-20 15:00N 45°30' W 073°30'0 0.0 350 / 8 -2.5-9.7
2017-Feb-20 14:00N 45°30' W 073°30'0 0.0 340 / 9 -3.1-9.6
2017-Feb-20 13:00N 45°30' W 073°30'0 0.0 320 / 11 -3.2-9.8
2017-Feb-20 12:00N 45°30' W 073°30'0 0.0 310 / 10 -3.1-9.6
2017-Feb-20 11:00N 45°30' W 073°30'0 0.0 320 / 9 -2.1-9.2
2017-Feb-20 10:00N 45°30' W 073°30'0 0.0 320 / 10 -1.4-8.8
2017-Feb-20 09:00N 45°30' W 073°30'0 0.0 300 / 5 -0.5-7.3
2017-Feb-20 08:00N 45°30' W 073°30'0 0.0 310 / 10 -0.0-7.7
2017-Feb-20 07:00N 45°30' W 073°30'0 0.0 320 / 8 0.8-7.2
2017-Feb-20 06:00N 45°30' W 073°30'0 0.0 320 / 9 1.2-6.5
2017-Feb-20 05:00N 45°30' W 073°30'0 0.0 340 / 9 1.4-5.9
2017-Feb-20 04:00N 45°30' W 073°30'0 0.0 350 / 6 2.0-4.4
2017-Feb-20 03:00N 45°30' W 073°30'0 0.0 350 / 12 3.0-3.6
2017-Feb-20 02:00N 45°30' W 073°30'0 0.0 320 / 8 3.8-2.9
2017-Feb-20 01:00N 45°30' W 073°30'0 0.0 340 / 10 4.7-1.8
2017-Feb-20 00:00N 45°30' W 073°30'0 0.0 320 / 10 5.1-1.7
2017-Feb-19 23:00N 45°30' W 073°30'0 0.0 290 / 10 5.9-0.4
2017-Feb-19 22:00N 45°30' W 073°30'0 0.0 320 / 14 7.3 0.7
2017-Feb-19 21:00N 45°30' W 073°30'0 0.0 230 / 5 7.7 0.4
2017-Feb-19 20:00N 45°30' W 073°30'0 0.0 250 / 6 8.7-0.0
2017-Feb-19 19:00N 45°30' W 073°30'0 0.0 300 / 10 8.9 0.3
2017-Feb-19 18:00N 45°30' W 073°30'0 0.0 270 / 5 8.0 1.5
2017-Feb-19 17:00N 45°30' W 073°30'0 0.0 240 / 5 7.5 2.0
2017-Feb-19 16:00N 45°30' W 073°30'0 0.0 240 / 10 6.5 2.1
2017-Feb-19 15:00N 45°30' W 073°30'0 0.0 240 / 9 4.9 1.9
2017-Feb-19 14:00N 45°30' W 073°30'0 0.0 220 / 9 4.0 1.8
2017-Feb-19 13:00N 45°30' W 073°30'0 0.0 210 / 9 3.4 1.8
2017-Feb-19 12:00N 45°30' W 073°30'0 0.0 210 / 8 3.5 1.8
2017-Feb-19 11:00N 45°30' W 073°30'0 0.0 190 / 8 3.4 1.7
2017-Feb-19 10:00N 45°30' W 073°30'0 0.0 200 / 8 4.4 1.8
2017-Feb-19 09:00N 45°30' W 073°30'0 0.0 230 / 10 5.3 1.9
2017-Feb-19 08:00N 45°30' W 073°30'0 0.0 240 / 12 5.7 1.9
2017-Feb-19 07:00N 45°30' W 073°30'0 0.0 230 / 10 5.6 1.9
2017-Feb-19 06:00N 45°30' W 073°30'0 0.0 220 / 10 5.7 2.0
2017-Feb-19 05:00N 45°30' W 073°30'0 0.0 220 / 10 6.1 2.1
2017-Feb-19 04:00N 45°30' W 073°30'0 0.0 230 / 10 6.8 2.1
2017-Feb-19 03:00N 45°30' W 073°30'0 0.0 230 / 9 7.6 2.2
2017-Feb-19 02:00N 45°30' W 073°30'0 0.0 230 / 16 7.9 2.1
2017-Feb-19 01:00N 45°30' W 073°30'0 0.0 230 / 13 8.1 2.1
2017-Feb-19 00:00N 45°30' W 073°30'0 0.0 220 / 12 8.1 1.9
2017-Feb-18 23:00N 45°30' W 073°30'0 0.0 210 / 8 6.2-0.9
2017-Feb-18 22:00N 45°30' W 073°30'0 0.0 170 / 6 5.6-2.3
2017-Feb-18 21:00N 45°30' W 073°30'0 0.0 170 / 7 5.7-2.9
2017-Feb-18 20:00N 45°30' W 073°30'0 0.0 160 / 3 5.5-2.9
2017-Feb-18 19:00N 45°30' W 073°30'0 0.0 150 / 5 4.3-3.1
2017-Feb-18 18:00N 45°30' W 073°30'0 0.0 140 / 4 3.6-3.8
2017-Feb-18 17:00N 45°30' W 073°30'0 0.0 150 / 5 2.4-4.7
2017-Feb-18 16:00N 45°30' W 073°30'0 0.0 140 / 5 0.7-5.1
2017-Feb-18 15:00N 45°30' W 073°30'0 0.0 120 / 2 0.2-6.2
2017-Feb-18 14:00N 45°30' W 073°30'0 0.0 170 / 5 -1.4-6.6
2017-Feb-18 13:00N 45°30' W 073°30'0 0.0 160 / 5 -2.6-6.0
2017-Feb-18 12:00N 45°30' W 073°30'0 0.0 150 / 4 -3.8-6.4
2017-Feb-18 11:00N 45°30' W 073°30'0 0.0 120 / 3 -3.9-7.9
2017-Feb-18 10:00N 45°30' W 073°30'0 0.0 160 / 2 -4.1-8.0
2017-Feb-18 09:00N 45°30' W 073°30'0 0.0 150 / 5 -3.7-7.2
2017-Feb-18 08:00N 45°30' W 073°30'0 0.0 180 / 4 -3.5-8.0
2017-Feb-18 07:00N 45°30' W 073°30'0 0.0 180 / 4 -3.4-8.3
2017-Feb-18 06:00N 45°30' W 073°30'0 0.0 210 / 8 -3.8-8.8
2017-Feb-18 05:00N 45°30' W 073°30'0 0.0 200 / 9 -4.0-8.8
2017-Feb-18 04:00N 45°30' W 073°30'0 0.0 210 / 9 -3.8-9.2
2017-Feb-18 03:00N 45°30' W 073°30'0 0.0 210 / 9 -4.0-9.5
2017-Feb-18 02:00N 45°30' W 073°30'0 0.0 220 / 8 -3.7-9.5
2017-Feb-18 01:00N 45°30' W 073°30'0 0.0 230 / 9 -3.6-9.5
2017-Feb-18 00:00N 45°30' W 073°30'0 0.0 220 / 9 -3.6-9.5
2017-Feb-17 23:00N 45°30' W 073°30'0 0.0 230 / 11 -3.2-9.7
2017-Feb-17 22:00N 45°30' W 073°30'0 0.0 220 / 10 -3.0-9.4
2017-Feb-17 21:00N 45°30' W 073°30'0 0.0 230 / 11 -3.2-9.8
2017-Feb-17 20:00N 45°30' W 073°30'0 0.0 210 / 10 -3.6-9.8
2017-Feb-17 19:00N 45°30' W 073°30'0 0.0 210 / 12 -3.6-9.9
2017-Feb-17 18:00N 45°30' W 073°30'0 0.0 220 / 11 -4.1-11.0
2017-Feb-17 17:00N 45°30' W 073°30'0 0.0 240 / 13 -4.4-11.2
2017-Feb-17 16:00N 45°30' W 073°30'0 0.0 230 / 8 -5.2-10.8
2017-Feb-17 15:00N 45°30' W 073°30'0 0.0 240 / 11 -6.2-11.3
2017-Feb-17 14:00N 45°30' W 073°30'0 0.0 230 / 9 -6.4-11.5
2017-Feb-17 13:00N 45°30' W 073°30'0 0.0 230 / 6 -6.7-11.6
2017-Feb-17 12:00N 45°30' W 073°30'0 0.0 240 / 5 -6.9-11.9
2017-Feb-17 11:00N 45°30' W 073°30'0 0.0 240 / 6 -6.5-11.7
2017-Feb-17 10:00N 45°30' W 073°30'0 0.0 230 / 6 -5.8-11.0
2017-Feb-17 09:00N 45°30' W 073°30'0 0.0 270 / 3 -5.3-10.7
2017-Feb-17 08:00N 45°30' W 073°30'0 0.0 260 / 7 -5.0-10.3
2017-Feb-17 07:00N 45°30' W 073°30'0 0.0 260 / 5 -4.7-10.0
2017-Feb-17 06:00N 45°30' W 073°30'0 0.0 260 / 6 -4.3-9.5
2017-Feb-17 05:00N 45°30' W 073°30'0 0.0 260 / 5 -3.8-8.1
2017-Feb-17 04:00N 45°30' W 073°30'0 0.0 290 / 9 -3.3-8.9
2017-Feb-17 03:00N 45°30' W 073°30'0 0.0 290 / 3 -3.4-7.4
2017-Feb-17 02:00N 45°30' W 073°30'0 0.0 260 / 5 -3.0-8.1
2017-Feb-17 01:00N 45°30' W 073°30'0 0.0 300 / 10 -2.5-8.1
2017-Feb-17 00:00N 45°30' W 073°30'0 0.0 290 / 13 -2.2-7.6
2017-Feb-16 23:00N 45°30' W 073°30'0 0.0 280 / 5 -1.7-7.3
2017-Feb-16 22:00N 45°30' W 073°30'0 0.0 300 / 9 -1.4-7.3
2017-Feb-16 21:00N 45°30' W 073°30'0 0.0 230 / 7 -2.2-6.9
2017-Feb-16 20:00N 45°30' W 073°30'0 0.0 230 / 5 -2.3-6.7
2017-Feb-16 19:00N 45°30' W 073°30'0 0.0 240 / 5 -2.0-6.4
2017-Feb-16 17:00N 45°30' W 073°30'0 0.0 290 / 8 -2.9-6.6
2017-Feb-16 16:00N 45°30' W 073°30'0 0.0 320 / 7 -3.0-5.6
2017-Feb-16 15:00N 45°30' W 073°30'0 0.0 310 / 8 -3.6-5.3
2017-Feb-16 14:00N 45°30' W 073°30'0 0.0 340 / 8 -4.4-4.8
2017-Feb-16 13:00N 45°30' W 073°30'0 0.0 340 / 10 -4.7-4.9
2017-Feb-16 12:00N 45°30' W 073°30'0 0.0 350 / 11 -4.6-4.8
2017-Feb-16 11:00N 45°30' W 073°30'0 0.0 340 / 11 -4.5-4.9
2017-Feb-16 10:00N 45°30' W 073°30'0 0.0 340 / 11 -4.3-4.7
2017-Feb-16 09:00N 45°30' W 073°30'0 0.0 340 / 11 -4.4-4.5
2017-Feb-16 08:00N 45°30' W 073°30'0 0.0 330 / 10 -4.0-4.9
2017-Feb-16 07:00N 45°30' W 073°30'0 0.0 340 / 11 -4.1-4.5
2017-Feb-16 06:00N 45°30' W 073°30'0 0.0 320 / 9 -3.9-4.2
2017-Feb-16 05:00N 45°30' W 073°30'0 0.0 310 / 9 -3.8-4.2
2017-Feb-16 04:00N 45°30' W 073°30'0 0.0 310 / 10 -4.0-4.1
2017-Feb-16 03:00N 45°30' W 073°30'0 0.0 330 / 9 -4.2-4.4
2017-Feb-16 02:00N 45°30' W 073°30'0 0.0 340 / 8 -4.3-4.6
2017-Feb-16 01:00N 45°30' W 073°30'0 0.0 340 / 10 -4.5-5.1
2017-Feb-16 00:00N 45°30' W 073°30'0 0.0 340 / 11 -4.6-5.0
2017-Feb-15 23:00N 45°30' W 073°30'0 0.0 340 / 12 -4.5-4.8
2017-Feb-15 22:00N 45°30' W 073°30'0 0.0 350 / 12 -4.5-4.6
2017-Feb-15 21:00N 45°30' W 073°30'0 0.0 350 / 14 -4.5-4.6
2017-Feb-15 20:00N 45°30' W 073°30'0 0.0 360 / 9 -4.5-4.6
2017-Feb-15 19:00N 45°30' W 073°30'0 0.0 360 / 12 -4.9-5.0
2017-Feb-15 18:00N 45°30' W 073°30'0 0.0 360 / 10 -5.3-5.4
2017-Feb-15 17:00N 45°30' W 073°30'0 0.0 360 / 11 -5.5-5.6
2017-Feb-15 16:00N 45°30' W 073°30'0 0.0 350 / 10 -5.8-5.9
2017-Feb-15 15:00N 45°30' W 073°30'0 0.0 350 / 12 -6.0-6.1
2017-Feb-15 14:00N 45°30' W 073°30'0 0.0 350 / 12 -6.0-6.1
2017-Feb-15 13:00N 45°30' W 073°30'0 0.0 350 / 11 -5.4-5.5
2017-Feb-15 12:00N 45°30' W 073°30'0 0.0 350 / 9 -5.0-5.1
2017-Feb-15 11:00N 45°30' W 073°30'0 0.0 350 / 9 -4.6-4.6
2017-Feb-15 10:00N 45°30' W 073°30'0 0.0 360 / 8 -4.3-4.3
2017-Feb-15 09:00N 45°30' W 073°30'0 0.0 350 / 9 -3.9-4.0
2017-Feb-15 08:00N 45°30' W 073°30'0 0.0 010 / 2 -2.8-2.8
2017-Feb-15 07:00N 45°30' W 073°30'0 0.0 020 / 3 -3.5-3.5
2017-Feb-15 06:00N 45°30' W 073°30'0 0.0 030 / 2 -4.3-4.3
2017-Feb-15 05:00N 45°30' W 073°30'0 0.0 020 / 4 -5.0-5.2
2017-Feb-15 04:00N 45°30' W 073°30'0 0.0 360 / 5 -4.5-7.6
2017-Feb-15 03:00N 45°30' W 073°30'0 0.0 020 / 4 -4.5-8.0
2017-Feb-15 02:00N 45°30' W 073°30'0 0.0 010 / 4 -4.7-8.5
2017-Feb-15 01:00N 45°30' W 073°30'0 0.0 030 / 3 -4.2-8.4
2017-Feb-15 00:00N 45°30' W 073°30'0 0.0 020 / 4 -4.1-8.7
2017-Feb-14 23:00N 45°30' W 073°30'0 0.0 030 / 2 -4.0-8.5
2017-Feb-14 22:00N 45°30' W 073°30'0 0.0 100 / 3 -3.2-8.5
2017-Feb-14 21:00N 45°30' W 073°30'0 0.0 110 / 2 -2.7-8.0
2017-Feb-14 20:00N 45°30' W 073°30'0 0.0 120 / 3 -2.2-8.2
2017-Feb-14 19:00N 45°30' W 073°30'0 0.0 140 / 4 -4.0-9.2
2017-Feb-14 18:00N 45°30' W 073°30'0 0.0 130 / 3 -4.3-8.5
2017-Feb-14 17:00N 45°30' W 073°30'0 0.0 140 / 4 -4.7-7.8
2017-Feb-14 16:00N 45°30' W 073°30'0 0.0 120 / 2 -5.3-7.9
2017-Feb-14 15:00N 45°30' W 073°30'0 0.0 170 / 5 -6.1-8.6
2017-Feb-14 14:00N 45°30' W 073°30'0 0.0 210 / 6 -7.3-9.7
2017-Feb-14 13:00N 45°30' W 073°30'0 0.0 210 / 6 -8.7-9.9
2017-Feb-14 12:00N 45°30' W 073°30'0 0.0 210 / 8 -8.0-9.4
2017-Feb-14 11:00N 45°30' W 073°30'0 0.0 210 / 7 -7.3-9.0
2017-Feb-14 10:00N 45°30' W 073°30'0 0.0 210 / 7 -6.3-9.5
2017-Feb-14 09:00N 45°30' W 073°30'0 0.0 210 / 5 -5.9-9.3
2017-Feb-14 08:00N 45°30' W 073°30'0 0.0 220 / 4 -5.1-9.2
2017-Feb-14 07:00N 45°30' W 073°30'0 0.0 230 / 5 -5.2-8.9
2017-Feb-14 06:00N 45°30' W 073°30'0 0.0 250 / 3 -4.6-8.7
2017-Feb-14 05:00N 45°30' W 073°30'0 0.0 240 / 5 -4.3-8.6
2017-Feb-14 04:00N 45°30' W 073°30'0 0.0 300 / 4 -3.7-8.1
2017-Feb-14 03:00N 45°30' W 073°30'0 0.0 240 / 4 -3.6-7.9
2017-Feb-14 02:00N 45°30' W 073°30'0 0.0 300 / 8 -3.0-7.7
2017-Feb-14 01:00N 45°30' W 073°30'0 0.0 300 / 7 -2.7-7.8
2017-Feb-14 00:00N 45°30' W 073°30'0 0.0 280 / 5 -2.5-7.4
2017-Feb-13 23:00N 45°30' W 073°30'0 0.0 230 / 6 -3.0-7.2
2017-Feb-13 22:00N 45°30' W 073°30'0 0.0 230 / 7 -3.1-8.0
2017-Feb-13 21:00N 45°30' W 073°30'0 0.0 230 / 6 -3.4-8.6
2017-Feb-13 20:00N 45°30' W 073°30'0 0.0 230 / 6 -3.6-9.1
2017-Feb-13 19:00N 45°30' W 073°30'0 0.0 300 / 6 -3.7-8.9
2017-Feb-13 18:00N 45°30' W 073°30'0 0.0 350 / 6 -4.4-8.9
2017-Feb-13 17:00N 45°30' W 073°30'0 0.0 350 / 9 -5.2-9.0
2017-Feb-13 16:00N 45°30' W 073°30'0 0.0 350 / 9 -5.9-9.0
2017-Feb-13 15:00N 45°30' W 073°30'   350 / 12 -6.5-8.9

Dump ship's entire track history